首页
METAR-TAF:

METAR-TAF

机场 :

羅馬納, 多米尼加共和国

纬度: 18-25N, 经度: 068-57W, 海拔: 8米

当前天气观测

该预报发布于4小时和13分钟前的18:00 UTC
风速5节,风向
温度 31°C
湿度 71%
气压 1016 hPa
能见度10公里或以上
少量云层高于2000英尺
多云层高于30000英尺

METAR: MDLR 281800Z 18005KT 9999 FEW020 BKN300 31/25 Q1016

时间: 18:13 (22:13 UTC)

预报

该预报发布于6小时和13分钟前的16:00 UTC
预报有效从28日的 18点(UTC)到 29日的 18点(UTC)
风速10节,风向
能见度10公里或以上
多云层高于1500英尺
几率 40%
从 28日的 18点(UTC)到 29日的 00点(UTC)
能見度: 6000
少量云层高于1400英尺, 积雨云.
多云层高于1500英尺
多云层高于7000英尺
小雨
成为
从 29日的 00点(UTC)到 29日的 02点(UTC)
风速节,风向

TAF: MDLR 281600Z 2818/2918 08010KT 9999 BKN015 PROB40 2818/2900 6000 -RA FEW014CB BKN015 BKN070 BECMG 2900/2902 00000KT

超过4000个机场的气象观测和天气预报(METAR&TAF报告)。

可查询的气象台以黄色和红色小点在地图上表示。

将鼠标移到小点上方,可查看气象台名称。

然后点击查看天气观测和预报。

如需切换地图:点击带黑十字的绿色按钮放大地图;点击带横线的绿色按钮缩小地图;或者点击绿色箭头查看邻近地区的地图。


METAR-TAF: